sensor_id;sensor_type;location;lat;lon;timestamp;P1;durP1;ratioP1;P2;durP2;ratioP2
45077;SDS011;60508;42.622;25.416;2022-12-10T00:00:20;34.45;;;16.38;;
45077;SDS011;60508;42.622;25.416;2022-12-10T00:02:46;19.33;;;12.50;;
45077;SDS011;60508;42.622;25.416;2022-12-10T00:05:11;18.35;;;11.40;;
45077;SDS011;60508;42.622;25.416;2022-12-10T00:07:37;17.15;;;9.98;;
45077;SDS011;60508;42.622;25.416;2022-12-10T00:10:03;20.38;;;11.00;;
45077;SDS011;60508;42.622;25.416;2022-12-10T00:12:30;25.13;;;12.90;;
45077;SDS011;60508;42.622;25.416;2022-12-10T00:14:55;19.95;;;12.43;;
45077;SDS011;60508;42.622;25.416;2022-12-10T00:17:21;28.00;;;14.98;;
45077;SDS011;60508;42.622;25.416;2022-12-10T00:19:47;20.58;;;15.07;;
45077;SDS011;60508;42.622;25.416;2022-12-10T00:22:13;29.45;;;16.92;;
45077;SDS011;60508;42.622;25.416;2022-12-10T00:24:39;32.38;;;17.13;;
45077;SDS011;60508;42.622;25.416;2022-12-10T00:27:05;29.90;;;19.00;;
45077;SDS011;60508;42.622;25.416;2022-12-10T00:29:31;40.45;;;17.60;;
45077;SDS011;60508;42.622;25.416;2022-12-10T00:31:57;21.30;;;15.18;;
45077;SDS011;60508;42.622;25.416;2022-12-10T00:34:23;20.60;;;11.23;;
45077;SDS011;60508;42.622;25.416;2022-12-10T00:36:49;20.15;;;9.30;;
45077;SDS011;60508;42.622;25.416;2022-12-10T00:39:17;10.90;;;8.50;;
45077;SDS011;60508;42.622;25.416;2022-12-10T00:41:44;23.02;;;10.40;;
45077;SDS011;60508;42.622;25.416;2022-12-10T00:44:11;18.48;;;12.50;;
45077;SDS011;60508;42.622;25.416;2022-12-10T00:46:37;22.27;;;13.18;;
45077;SDS011;60508;42.622;25.416;2022-12-10T00:49:03;20.90;;;13.00;;
45077;SDS011;60508;42.622;25.416;2022-12-10T00:51:29;22.50;;;12.20;;
45077;SDS011;60508;42.622;25.416;2022-12-10T00:53:56;23.40;;;13.23;;
45077;SDS011;60508;42.622;25.416;2022-12-10T00:56:25;23.13;;;14.00;;
45077;SDS011;60508;42.622;25.416;2022-12-10T00:58:52;25.77;;;15.87;;
45077;SDS011;60508;42.622;25.416;2022-12-10T01:01:26;24.63;;;16.15;;
45077;SDS011;60508;42.622;25.416;2022-12-10T01:03:55;25.48;;;17.02;;
45077;SDS011;60508;42.622;25.416;2022-12-10T01:06:26;37.83;;;16.95;;
45077;SDS011;60508;42.622;25.416;2022-12-10T01:08:58;34.83;;;17.83;;
45077;SDS011;60508;42.622;25.416;2022-12-10T01:11:26;55.17;;;19.75;;
45077;SDS011;60508;42.622;25.416;2022-12-10T01:13:55;35.13;;;16.77;;
45077;SDS011;60508;42.622;25.416;2022-12-10T01:16:22;63.17;;;17.98;;
45077;SDS011;60508;42.622;25.416;2022-12-10T01:18:52;52.53;;;17.98;;
45077;SDS011;60508;42.622;25.416;2022-12-10T01:23:45;34.60;;;17.50;;
45077;SDS011;60508;42.622;25.416;2022-12-10T01:26:17;61.97;;;17.13;;
45077;SDS011;60508;42.622;25.416;2022-12-10T01:28:45;40.00;;;21.33;;
45077;SDS011;60508;42.622;25.416;2022-12-10T01:31:16;25.40;;;16.75;;
45077;SDS011;60508;42.622;25.416;2022-12-10T01:33:44;24.92;;;13.60;;
45077;SDS011;60508;42.622;25.416;2022-12-10T01:36:12;28.77;;;12.10;;
45077;SDS011;60508;42.622;25.416;2022-12-10T01:38:42;15.63;;;11.25;;
45077;SDS011;60508;42.622;25.416;2022-12-10T01:41:13;23.77;;;11.50;;
45077;SDS011;60508;42.622;25.416;2022-12-10T01:44:04;16.80;;;10.65;;
45077;SDS011;60508;42.622;25.416;2022-12-10T01:46:52;16.88;;;11.68;;
45077;SDS011;60508;42.622;25.416;2022-12-10T01:49:24;18.10;;;12.73;;
45077;SDS011;60508;42.622;25.416;2022-12-10T01:52:01;18.52;;;11.45;;
45077;SDS011;60508;42.622;25.416;2022-12-10T01:54:29;23.73;;;14.38;;
45077;SDS011;60508;42.622;25.416;2022-12-10T01:57:00;21.17;;;13.52;;
45077;SDS011;60508;42.622;25.416;2022-12-10T01:59:33;16.85;;;12.27;;
45077;SDS011;60508;42.622;25.416;2022-12-10T02:02:08;17.77;;;12.30;;
45077;SDS011;60508;42.622;25.416;2022-12-10T02:15:41;17.17;;;9.60;;
45077;SDS011;60508;42.622;25.416;2022-12-10T02:18:15;12.27;;;9.02;;
45077;SDS011;60508;42.622;25.416;2022-12-10T02:21:10;11.55;;;8.02;;
45077;SDS011;60508;42.622;25.416;2022-12-10T02:23:43;9.98;;;8.00;;
45077;SDS011;60508;42.622;25.416;2022-12-10T02:34:35;20.05;;;9.40;;
45077;SDS011;60508;42.622;25.416;2022-12-10T02:37:05;11.40;;;8.18;;
45077;SDS011;60508;42.622;25.416;2022-12-10T02:39:38;17.13;;;11.25;;
45077;SDS011;60508;42.622;25.416;2022-12-10T02:42:07;13.30;;;11.55;;
45077;SDS011;60508;42.622;25.416;2022-12-10T02:44:36;19.70;;;13.48;;
45077;SDS011;60508;42.622;25.416;2022-12-10T02:47:05;20.05;;;11.93;;
45077;SDS011;60508;42.622;25.416;2022-12-10T02:49:39;21.55;;;12.77;;
45077;SDS011;60508;42.622;25.416;2022-12-10T02:52:12;20.65;;;13.48;;
45077;SDS011;60508;42.622;25.416;2022-12-10T02:54:44;19.80;;;12.85;;
45077;SDS011;60508;42.622;25.416;2022-12-10T03:05:18;27.70;;;14.13;;
45077;SDS011;60508;42.622;25.416;2022-12-10T03:07:55;25.88;;;12.20;;
45077;SDS011;60508;42.622;25.416;2022-12-10T03:13:30;15.80;;;11.95;;
45077;SDS011;60508;42.622;25.416;2022-12-10T03:16:02;18.10;;;11.35;;
45077;SDS011;60508;42.622;25.416;2022-12-10T03:18:29;20.88;;;11.82;;
45077;SDS011;60508;42.622;25.416;2022-12-10T03:21:01;21.88;;;13.68;;
45077;SDS011;60508;42.622;25.416;2022-12-10T03:23:29;22.25;;;12.85;;
45077;SDS011;60508;42.622;25.416;2022-12-10T03:26:00;26.77;;;12.80;;
45077;SDS011;60508;42.622;25.416;2022-12-10T03:28:28;25.48;;;12.80;;
45077;SDS011;60508;42.622;25.416;2022-12-10T03:31:00;32.47;;;14.63;;
45077;SDS011;60508;42.622;25.416;2022-12-10T03:33:27;32.97;;;14.75;;
45077;SDS011;60508;42.622;25.416;2022-12-10T03:35:54;25.23;;;11.70;;
45077;SDS011;60508;42.622;25.416;2022-12-10T03:38:21;22.95;;;10.77;;
45077;SDS011;60508;42.622;25.416;2022-12-10T03:40:47;16.25;;;11.20;;
45077;SDS011;60508;42.622;25.416;2022-12-10T03:43:13;18.88;;;11.07;;
45077;SDS011;60508;42.622;25.416;2022-12-10T03:45:39;21.83;;;10.35;;
45077;SDS011;60508;42.622;25.416;2022-12-10T03:48:06;18.35;;;10.60;;
45077;SDS011;60508;42.622;25.416;2022-12-10T03:50:32;19.42;;;11.00;;
45077;SDS011;60508;42.622;25.416;2022-12-10T03:52:58;20.77;;;11.73;;
45077;SDS011;60508;42.622;25.416;2022-12-10T03:55:24;19.48;;;11.27;;
45077;SDS011;60508;42.622;25.416;2022-12-10T03:57:51;27.98;;;12.90;;
45077;SDS011;60508;42.622;25.416;2022-12-10T04:00:17;28.02;;;12.25;;
45077;SDS011;60508;42.622;25.416;2022-12-10T04:02:43;15.75;;;10.05;;
45077;SDS011;60508;42.622;25.416;2022-12-10T04:05:08;23.73;;;12.27;;
45077;SDS011;60508;42.622;25.416;2022-12-10T04:07:35;30.55;;;14.98;;
45077;SDS011;60508;42.622;25.416;2022-12-10T04:10:01;22.50;;;13.15;;
45077;SDS011;60508;42.622;25.416;2022-12-10T04:12:28;42.75;;;13.05;;
45077;SDS011;60508;42.622;25.416;2022-12-10T04:14:54;17.42;;;11.25;;
45077;SDS011;60508;42.622;25.416;2022-12-10T04:17:38;16.38;;;11.55;;
45077;SDS011;60508;42.622;25.416;2022-12-10T04:20:05;21.60;;;14.05;;
45077;SDS011;60508;42.622;25.416;2022-12-10T04:22:52;18.08;;;11.43;;
45077;SDS011;60508;42.622;25.416;2022-12-10T04:25:36;26.58;;;12.23;;
45077;SDS011;60508;42.622;25.416;2022-12-10T04:28:21;19.42;;;10.95;;
45077;SDS011;60508;42.622;25.416;2022-12-10T04:30:47;24.02;;;12.48;;
45077;SDS011;60508;42.622;25.416;2022-12-10T04:33:13;35.80;;;15.25;;
45077;SDS011;60508;42.622;25.416;2022-12-10T04:35:39;25.25;;;14.25;;
45077;SDS011;60508;42.622;25.416;2022-12-10T04:38:05;33.80;;;15.73;;
45077;SDS011;60508;42.622;25.416;2022-12-10T04:40:30;29.98;;;14.82;;
45077;SDS011;60508;42.622;25.416;2022-12-10T04:42:56;29.10;;;16.65;;
45077;SDS011;60508;42.622;25.416;2022-12-10T04:45:22;28.85;;;15.35;;
45077;SDS011;60508;42.622;25.416;2022-12-10T04:47:48;29.70;;;15.27;;
45077;SDS011;60508;42.622;25.416;2022-12-10T04:50:14;21.42;;;14.20;;
45077;SDS011;60508;42.622;25.416;2022-12-10T04:52:40;23.55;;;14.77;;
45077;SDS011;60508;42.622;25.416;2022-12-10T04:55:06;26.40;;;15.13;;
45077;SDS011;60508;42.622;25.416;2022-12-10T04:57:33;40.58;;;16.50;;
45077;SDS011;60508;42.622;25.416;2022-12-10T04:59:59;37.05;;;18.00;;
45077;SDS011;60508;42.622;25.416;2022-12-10T05:02:25;25.42;;;15.15;;
45077;SDS011;60508;42.622;25.416;2022-12-10T05:04:51;32.47;;;17.27;;
45077;SDS011;60508;42.622;25.416;2022-12-10T05:07:17;40.33;;;16.08;;
45077;SDS011;60508;42.622;25.416;2022-12-10T05:09:43;36.15;;;16.38;;
45077;SDS011;60508;42.622;25.416;2022-12-10T05:12:09;36.92;;;14.48;;
45077;SDS011;60508;42.622;25.416;2022-12-10T05:14:34;48.25;;;16.10;;
45077;SDS011;60508;42.622;25.416;2022-12-10T05:17:01;30.70;;;16.35;;
45077;SDS011;60508;42.622;25.416;2022-12-10T05:19:27;28.90;;;15.32;;
45077;SDS011;60508;42.622;25.416;2022-12-10T05:21:53;34.65;;;15.77;;
45077;SDS011;60508;42.622;25.416;2022-12-10T05:24:38;28.48;;;14.30;;
45077;SDS011;60508;42.622;25.416;2022-12-10T05:27:04;37.70;;;17.20;;
45077;SDS011;60508;42.622;25.416;2022-12-10T05:29:30;19.88;;;13.55;;
45077;SDS011;60508;42.622;25.416;2022-12-10T05:31:57;23.42;;;13.85;;
45077;SDS011;60508;42.622;25.416;2022-12-10T05:34:23;28.95;;;16.17;;
45077;SDS011;60508;42.622;25.416;2022-12-10T05:36:52;39.50;;;17.67;;
45077;SDS011;60508;42.622;25.416;2022-12-10T05:39:18;29.02;;;17.23;;
45077;SDS011;60508;42.622;25.416;2022-12-10T05:41:44;32.70;;;17.17;;
45077;SDS011;60508;42.622;25.416;2022-12-10T05:44:10;33.08;;;18.05;;
45077;SDS011;60508;42.622;25.416;2022-12-10T05:46:37;32.30;;;18.52;;
45077;SDS011;60508;42.622;25.416;2022-12-10T05:49:04;32.83;;;20.92;;
45077;SDS011;60508;42.622;25.416;2022-12-10T05:51:32;33.55;;;19.00;;
45077;SDS011;60508;42.622;25.416;2022-12-10T05:54:00;30.05;;;16.90;;
45077;SDS011;60508;42.622;25.416;2022-12-10T05:56:29;38.22;;;18.13;;
45077;SDS011;60508;42.622;25.416;2022-12-10T05:59:00;30.63;;;18.70;;
45077;SDS011;60508;42.622;25.416;2022-12-10T06:01:28;36.28;;;17.90;;
45077;SDS011;60508;42.622;25.416;2022-12-10T06:03:57;32.42;;;19.40;;
45077;SDS011;60508;42.622;25.416;2022-12-10T06:06:28;32.75;;;18.05;;
45077;SDS011;60508;42.622;25.416;2022-12-10T06:08:55;30.15;;;19.27;;
45077;SDS011;60508;42.622;25.416;2022-12-10T06:11:22;42.00;;;20.48;;
45077;SDS011;60508;42.622;25.416;2022-12-10T06:13:48;38.25;;;19.40;;
45077;SDS011;60508;42.622;25.416;2022-12-10T06:16:14;45.42;;;23.17;;
45077;SDS011;60508;42.622;25.416;2022-12-10T06:18:41;49.17;;;22.83;;
45077;SDS011;60508;42.622;25.416;2022-12-10T06:21:13;48.53;;;27.08;;
45077;SDS011;60508;42.622;25.416;2022-12-10T06:23:40;46.13;;;25.10;;
45077;SDS011;60508;42.622;25.416;2022-12-10T06:26:07;47.35;;;24.45;;
45077;SDS011;60508;42.622;25.416;2022-12-10T06:28:36;44.28;;;21.27;;
45077;SDS011;60508;42.622;25.416;2022-12-10T06:31:03;51.85;;;25.02;;
45077;SDS011;60508;42.622;25.416;2022-12-10T06:33:29;49.50;;;26.65;;
45077;SDS011;60508;42.622;25.416;2022-12-10T06:35:55;64.40;;;32.90;;
45077;SDS011;60508;42.622;25.416;2022-12-10T06:38:21;71.55;;;36.33;;
45077;SDS011;60508;42.622;25.416;2022-12-10T06:40:47;67.53;;;34.72;;
45077;SDS011;60508;42.622;25.416;2022-12-10T06:43:14;75.70;;;35.83;;
45077;SDS011;60508;42.622;25.416;2022-12-10T06:45:41;74.75;;;35.60;;
45077;SDS011;60508;42.622;25.416;2022-12-10T06:48:08;58.72;;;32.17;;
45077;SDS011;60508;42.622;25.416;2022-12-10T06:50:34;60.35;;;29.13;;
45077;SDS011;60508;42.622;25.416;2022-12-10T06:53:00;63.50;;;30.35;;
45077;SDS011;60508;42.622;25.416;2022-12-10T06:55:26;61.83;;;36.30;;
45077;SDS011;60508;42.622;25.416;2022-12-10T06:57:53;60.45;;;31.92;;
45077;SDS011;60508;42.622;25.416;2022-12-10T07:00:19;46.92;;;28.90;;
45077;SDS011;60508;42.622;25.416;2022-12-10T07:02:46;46.45;;;28.27;;
45077;SDS011;60508;42.622;25.416;2022-12-10T07:05:12;50.03;;;29.05;;
45077;SDS011;60508;42.622;25.416;2022-12-10T07:07:39;55.33;;;27.73;;
45077;SDS011;60508;42.622;25.416;2022-12-10T07:10:05;43.08;;;26.50;;
45077;SDS011;60508;42.622;25.416;2022-12-10T07:12:32;46.90;;;27.95;;
45077;SDS011;60508;42.622;25.416;2022-12-10T07:14:58;52.38;;;25.55;;
45077;SDS011;60508;42.622;25.416;2022-12-10T07:17:24;43.60;;;25.42;;
45077;SDS011;60508;42.622;25.416;2022-12-10T07:19:50;42.88;;;25.20;;
45077;SDS011;60508;42.622;25.416;2022-12-10T07:22:16;42.22;;;25.50;;
45077;SDS011;60508;42.622;25.416;2022-12-10T07:24:43;41.88;;;24.50;;
45077;SDS011;60508;42.622;25.416;2022-12-10T07:27:09;41.22;;;23.90;;
45077;SDS011;60508;42.622;25.416;2022-12-10T07:29:35;44.70;;;23.40;;
45077;SDS011;60508;42.622;25.416;2022-12-10T07:32:01;33.85;;;20.48;;
45077;SDS011;60508;42.622;25.416;2022-12-10T07:34:27;39.17;;;22.52;;
45077;SDS011;60508;42.622;25.416;2022-12-10T07:36:53;37.85;;;22.48;;
45077;SDS011;60508;42.622;25.416;2022-12-10T07:39:20;34.90;;;22.17;;
45077;SDS011;60508;42.622;25.416;2022-12-10T07:41:50;40.80;;;22.42;;
45077;SDS011;60508;42.622;25.416;2022-12-10T07:44:22;41.88;;;21.30;;
45077;SDS011;60508;42.622;25.416;2022-12-10T07:46:49;36.80;;;19.20;;
45077;SDS011;60508;42.622;25.416;2022-12-10T07:49:16;31.00;;;19.10;;
45077;SDS011;60508;42.622;25.416;2022-12-10T07:51:46;33.00;;;19.88;;
45077;SDS011;60508;42.622;25.416;2022-12-10T07:54:13;41.92;;;19.35;;
45077;SDS011;60508;42.622;25.416;2022-12-10T07:56:40;49.25;;;21.33;;
45077;SDS011;60508;42.622;25.416;2022-12-10T07:59:06;44.40;;;20.80;;
45077;SDS011;60508;42.622;25.416;2022-12-10T08:01:32;38.45;;;21.60;;
45077;SDS011;60508;42.622;25.416;2022-12-10T08:03:58;36.15;;;20.80;;
45077;SDS011;60508;42.622;25.416;2022-12-10T08:06:25;42.53;;;21.00;;
45077;SDS011;60508;42.622;25.416;2022-12-10T08:08:53;50.08;;;23.35;;
45077;SDS011;60508;42.622;25.416;2022-12-10T08:11:21;45.38;;;23.88;;
45077;SDS011;60508;42.622;25.416;2022-12-10T08:13:47;66.93;;;30.30;;
45077;SDS011;60508;42.622;25.416;2022-12-10T08:16:16;54.78;;;26.40;;
45077;SDS011;60508;42.622;25.416;2022-12-10T08:21:14;33.90;;;20.95;;
45077;SDS011;60508;42.622;25.416;2022-12-10T08:23:43;45.78;;;22.13;;
45077;SDS011;60508;42.622;25.416;2022-12-10T08:26:10;45.65;;;21.30;;
45077;SDS011;60508;42.622;25.416;2022-12-10T08:28:38;50.47;;;23.55;;
45077;SDS011;60508;42.622;25.416;2022-12-10T08:31:04;48.20;;;25.60;;
45077;SDS011;60508;42.622;25.416;2022-12-10T08:33:33;45.47;;;26.00;;
45077;SDS011;60508;42.622;25.416;2022-12-10T08:36:00;63.50;;;25.40;;
45077;SDS011;60508;42.622;25.416;2022-12-10T08:42:45;34.10;;;18.33;;
45077;SDS011;60508;42.622;25.416;2022-12-10T08:45:11;46.40;;;19.67;;
45077;SDS011;60508;42.622;25.416;2022-12-10T08:47:37;43.40;;;19.52;;
45077;SDS011;60508;42.622;25.416;2022-12-10T08:50:02;46.20;;;18.70;;
45077;SDS011;60508;42.622;25.416;2022-12-10T08:52:29;32.28;;;17.65;;
45077;SDS011;60508;42.622;25.416;2022-12-10T08:54:55;41.13;;;17.80;;
45077;SDS011;60508;42.622;25.416;2022-12-10T08:57:21;34.63;;;16.67;;
45077;SDS011;60508;42.622;25.416;2022-12-10T08:59:47;34.83;;;16.17;;
45077;SDS011;60508;42.622;25.416;2022-12-10T09:02:12;35.85;;;15.27;;
45077;SDS011;60508;42.622;25.416;2022-12-10T09:04:38;27.92;;;16.92;;
45077;SDS011;60508;42.622;25.416;2022-12-10T09:07:06;32.05;;;17.55;;
45077;SDS011;60508;42.622;25.416;2022-12-10T09:09:32;36.38;;;17.98;;
45077;SDS011;60508;42.622;25.416;2022-12-10T09:11:58;31.73;;;16.33;;
45077;SDS011;60508;42.622;25.416;2022-12-10T09:14:25;27.90;;;16.42;;
45077;SDS011;60508;42.622;25.416;2022-12-10T09:16:51;26.30;;;16.25;;
45077;SDS011;60508;42.622;25.416;2022-12-10T09:19:17;37.67;;;18.13;;
45077;SDS011;60508;42.622;25.416;2022-12-10T09:21:42;36.42;;;16.95;;
45077;SDS011;60508;42.622;25.416;2022-12-10T09:24:08;28.85;;;17.98;;
45077;SDS011;60508;42.622;25.416;2022-12-10T09:26:34;33.30;;;18.60;;
45077;SDS011;60508;42.622;25.416;2022-12-10T09:29:00;39.40;;;18.60;;
45077;SDS011;60508;42.622;25.416;2022-12-10T09:31:26;44.97;;;19.08;;
45077;SDS011;60508;42.622;25.416;2022-12-10T09:33:53;37.33;;;20.25;;
45077;SDS011;60508;42.622;25.416;2022-12-10T09:36:19;45.60;;;21.80;;
45077;SDS011;60508;42.622;25.416;2022-12-10T09:38:46;37.13;;;21.23;;
45077;SDS011;60508;42.622;25.416;2022-12-10T09:41:18;35.75;;;21.40;;
45077;SDS011;60508;42.622;25.416;2022-12-10T09:43:55;38.75;;;21.88;;
45077;SDS011;60508;42.622;25.416;2022-12-10T09:51:59;39.10;;;22.33;;
45077;SDS011;60508;42.622;25.416;2022-12-10T09:54:28;32.30;;;21.77;;
45077;SDS011;60508;42.622;25.416;2022-12-10T09:56:55;31.95;;;21.17;;
45077;SDS011;60508;42.622;25.416;2022-12-10T09:59:24;38.58;;;24.73;;
45077;SDS011;60508;42.622;25.416;2022-12-10T10:02:00;38.15;;;22.13;;
45077;SDS011;60508;42.622;25.416;2022-12-10T10:04:39;35.17;;;22.23;;
45077;SDS011;60508;42.622;25.416;2022-12-10T10:07:05;37.58;;;23.95;;
45077;SDS011;60508;42.622;25.416;2022-12-10T10:09:31;36.47;;;21.65;;
45077;SDS011;60508;42.622;25.416;2022-12-10T10:12:08;32.53;;;20.75;;
45077;SDS011;60508;42.622;25.416;2022-12-10T10:14:39;32.67;;;20.40;;
45077;SDS011;60508;42.622;25.416;2022-12-10T10:17:23;34.88;;;21.38;;
45077;SDS011;60508;42.622;25.416;2022-12-10T10:19:58;37.42;;;21.95;;
45077;SDS011;60508;42.622;25.416;2022-12-10T10:22:24;48.10;;;23.85;;
45077;SDS011;60508;42.622;25.416;2022-12-10T10:24:51;44.50;;;22.10;;
45077;SDS011;60508;42.622;25.416;2022-12-10T10:27:22;37.15;;;22.52;;
45077;SDS011;60508;42.622;25.416;2022-12-10T10:29:55;36.53;;;24.15;;
45077;SDS011;60508;42.622;25.416;2022-12-10T10:32:23;41.58;;;21.67;;
45077;SDS011;60508;42.622;25.416;2022-12-10T10:34:52;27.35;;;15.35;;
45077;SDS011;60508;42.622;25.416;2022-12-10T10:37:30;23.92;;;12.48;;
45077;SDS011;60508;42.622;25.416;2022-12-10T10:43:12;22.95;;;10.13;;
45077;SDS011;60508;42.622;25.416;2022-12-10T10:45:47;30.85;;;12.00;;
45077;SDS011;60508;42.622;25.416;2022-12-10T10:48:20;35.15;;;12.20;;
45077;SDS011;60508;42.622;25.416;2022-12-10T10:53:23;22.25;;;10.23;;
45077;SDS011;60508;42.622;25.416;2022-12-10T10:55:54;16.65;;;10.10;;
45077;SDS011;60508;42.622;25.416;2022-12-10T10:58:23;20.23;;;9.43;;
45077;SDS011;60508;42.622;25.416;2022-12-10T11:00:55;23.67;;;11.87;;
45077;SDS011;60508;42.622;25.416;2022-12-10T11:03:23;21.10;;;12.45;;
45077;SDS011;60508;42.622;25.416;2022-12-10T11:05:49;28.73;;;8.30;;
45077;SDS011;60508;42.622;25.416;2022-12-10T11:08:16;25.80;;;9.38;;
45077;SDS011;60508;42.622;25.416;2022-12-10T11:10:48;25.98;;;9.95;;
45077;SDS011;60508;42.622;25.416;2022-12-10T11:13:36;15.32;;;6.18;;
45077;SDS011;60508;42.622;25.416;2022-12-10T11:16:15;12.68;;;5.95;;
45077;SDS011;60508;42.622;25.416;2022-12-10T11:21:30;20.85;;;7.40;;
45077;SDS011;60508;42.622;25.416;2022-12-10T11:23:58;19.15;;;7.45;;
45077;SDS011;60508;42.622;25.416;2022-12-10T11:34:41;17.58;;;6.43;;
45077;SDS011;60508;42.622;25.416;2022-12-10T11:37:46;20.65;;;6.47;;
45077;SDS011;60508;42.622;25.416;2022-12-10T11:50:47;18.92;;;8.48;;
45077;SDS011;60508;42.622;25.416;2022-12-10T11:56:09;20.90;;;9.68;;
45077;SDS011;60508;42.622;25.416;2022-12-10T11:58:53;24.17;;;8.70;;
45077;SDS011;60508;42.622;25.416;2022-12-10T12:01:28;26.08;;;8.95;;
45077;SDS011;60508;42.622;25.416;2022-12-10T12:06:33;21.83;;;9.25;;
45077;SDS011;60508;42.622;25.416;2022-12-10T12:18:04;24.13;;;10.30;;
45077;SDS011;60508;42.622;25.416;2022-12-10T12:23:41;26.00;;;9.65;;
45077;SDS011;60508;42.622;25.416;2022-12-10T12:26:56;35.58;;;9.85;;
45077;SDS011;60508;42.622;25.416;2022-12-10T12:32:04;19.83;;;8.75;;
45077;SDS011;60508;42.622;25.416;2022-12-10T12:34:46;24.15;;;9.40;;
45077;SDS011;60508;42.622;25.416;2022-12-10T12:37:20;27.95;;;9.95;;
45077;SDS011;60508;42.622;25.416;2022-12-10T12:45:03;23.75;;;10.93;;
45077;SDS011;60508;42.622;25.416;2022-12-10T12:50:11;27.83;;;9.98;;
45077;SDS011;60508;42.622;25.416;2022-12-10T12:52:46;24.02;;;13.40;;
45077;SDS011;60508;42.622;25.416;2022-12-10T12:55:19;39.55;;;19.17;;
45077;SDS011;60508;42.622;25.416;2022-12-10T12:57:53;25.45;;;10.65;;
45077;SDS011;60508;42.622;25.416;2022-12-10T13:00:29;23.55;;;10.25;;
45077;SDS011;60508;42.622;25.416;2022-12-10T13:03:12;23.10;;;10.10;;
45077;SDS011;60508;42.622;25.416;2022-12-10T13:05:49;31.10;;;11.20;;
45077;SDS011;60508;42.622;25.416;2022-12-10T13:13:17;26.85;;;10.68;;
45077;SDS011;60508;42.622;25.416;2022-12-10T13:15:49;27.15;;;11.00;;
45077;SDS011;60508;42.622;25.416;2022-12-10T13:20:47;34.60;;;12.57;;
45077;SDS011;60508;42.622;25.416;2022-12-10T13:36:23;30.75;;;11.85;;
45077;SDS011;60508;42.622;25.416;2022-12-10T13:41:32;28.00;;;10.10;;
45077;SDS011;60508;42.622;25.416;2022-12-10T13:46:55;32.55;;;12.60;;
45077;SDS011;60508;42.622;25.416;2022-12-10T13:49:26;26.27;;;8.95;;
45077;SDS011;60508;42.622;25.416;2022-12-10T13:51:55;30.30;;;15.38;;
45077;SDS011;60508;42.622;25.416;2022-12-10T14:05:41;27.42;;;12.70;;
45077;SDS011;60508;42.622;25.416;2022-12-10T14:08:14;39.65;;;12.40;;
45077;SDS011;60508;42.622;25.416;2022-12-10T14:10:44;37.42;;;10.25;;
45077;SDS011;60508;42.622;25.416;2022-12-10T14:13:11;38.25;;;15.32;;
45077;SDS011;60508;42.622;25.416;2022-12-10T14:15:41;35.97;;;13.18;;
45077;SDS011;60508;42.622;25.416;2022-12-10T14:18:16;38.00;;;13.15;;
45077;SDS011;60508;42.622;25.416;2022-12-10T14:20:47;28.40;;;12.27;;
45077;SDS011;60508;42.622;25.416;2022-12-10T14:23:23;24.27;;;10.52;;
45077;SDS011;60508;42.622;25.416;2022-12-10T14:26:04;29.88;;;12.40;;
45077;SDS011;60508;42.622;25.416;2022-12-10T14:28:37;35.67;;;16.90;;
45077;SDS011;60508;42.622;25.416;2022-12-10T14:31:05;25.45;;;12.32;;
45077;SDS011;60508;42.622;25.416;2022-12-10T14:33:37;33.33;;;16.08;;
45077;SDS011;60508;42.622;25.416;2022-12-10T14:36:03;40.67;;;17.85;;
45077;SDS011;60508;42.622;25.416;2022-12-10T14:38:30;51.60;;;20.75;;
45077;SDS011;60508;42.622;25.416;2022-12-10T14:40:58;32.28;;;14.82;;
45077;SDS011;60508;42.622;25.416;2022-12-10T14:43:30;38.88;;;14.52;;
45077;SDS011;60508;42.622;25.416;2022-12-10T14:46:02;36.30;;;12.85;;
45077;SDS011;60508;42.622;25.416;2022-12-10T14:48:29;34.58;;;15.10;;
45077;SDS011;60508;42.622;25.416;2022-12-10T14:50:56;62.20;;;30.00;;
45077;SDS011;60508;42.622;25.416;2022-12-10T14:53:30;40.05;;;16.88;;
45077;SDS011;60508;42.622;25.416;2022-12-10T14:55:58;25.70;;;15.60;;
45077;SDS011;60508;42.622;25.416;2022-12-10T15:01:15;34.55;;;20.48;;
45077;SDS011;60508;42.622;25.416;2022-12-10T15:03:46;35.40;;;18.98;;
45077;SDS011;60508;42.622;25.416;2022-12-10T15:06:14;85.88;;;32.83;;
45077;SDS011;60508;42.622;25.416;2022-12-10T15:08:44;125.43;;;49.13;;
45077;SDS011;60508;42.622;25.416;2022-12-10T15:11:14;98.43;;;45.50;;
45077;SDS011;60508;42.622;25.416;2022-12-10T15:13:50;68.65;;;33.35;;
45077;SDS011;60508;42.622;25.416;2022-12-10T15:16:20;89.35;;;42.65;;
45077;SDS011;60508;42.622;25.416;2022-12-10T15:18:55;68.80;;;34.33;;
45077;SDS011;60508;42.622;25.416;2022-12-10T15:21:32;54.65;;;23.83;;
45077;SDS011;60508;42.622;25.416;2022-12-10T15:26:53;45.83;;;21.15;;
45077;SDS011;60508;42.622;25.416;2022-12-10T15:31:48;41.40;;;15.30;;
45077;SDS011;60508;42.622;25.416;2022-12-10T15:34:15;31.67;;;12.77;;
45077;SDS011;60508;42.622;25.416;2022-12-10T15:42:25;25.20;;;10.95;;
45077;SDS011;60508;42.622;25.416;2022-12-10T15:44:56;18.88;;;10.40;;
45077;SDS011;60508;42.622;25.416;2022-12-10T15:47:25;27.90;;;11.40;;
45077;SDS011;60508;42.622;25.416;2022-12-10T15:49:52;28.17;;;11.35;;
45077;SDS011;60508;42.622;25.416;2022-12-10T15:52:21;24.55;;;10.15;;
45077;SDS011;60508;42.622;25.416;2022-12-10T15:54:50;25.23;;;11.13;;
45077;SDS011;60508;42.622;25.416;2022-12-10T15:57:21;37.75;;;11.27;;
45077;SDS011;60508;42.622;25.416;2022-12-10T15:59:48;22.73;;;11.90;;
45077;SDS011;60508;42.622;25.416;2022-12-10T16:02:24;22.63;;;8.40;;
45077;SDS011;60508;42.622;25.416;2022-12-10T16:04:52;21.38;;;7.28;;
45077;SDS011;60508;42.622;25.416;2022-12-10T16:07:18;16.83;;;8.63;;
45077;SDS011;60508;42.622;25.416;2022-12-10T16:09:44;37.67;;;9.15;;
45077;SDS011;60508;42.622;25.416;2022-12-10T16:12:11;29.55;;;9.63;;
45077;SDS011;60508;42.622;25.416;2022-12-10T16:14:39;43.60;;;11.93;;
45077;SDS011;60508;42.622;25.416;2022-12-10T16:17:08;25.52;;;9.00;;
45077;SDS011;60508;42.622;25.416;2022-12-10T16:19:34;36.85;;;10.60;;
45077;SDS011;60508;42.622;25.416;2022-12-10T16:22:02;24.70;;;10.32;;
45077;SDS011;60508;42.622;25.416;2022-12-10T16:24:27;23.30;;;10.63;;
45077;SDS011;60508;42.622;25.416;2022-12-10T16:26:53;20.13;;;10.60;;
45077;SDS011;60508;42.622;25.416;2022-12-10T16:29:19;23.30;;;10.50;;
45077;SDS011;60508;42.622;25.416;2022-12-10T16:31:46;24.90;;;9.15;;
45077;SDS011;60508;42.622;25.416;2022-12-10T16:34:12;21.48;;;7.45;;
45077;SDS011;60508;42.622;25.416;2022-12-10T16:36:38;18.55;;;7.65;;
45077;SDS011;60508;42.622;25.416;2022-12-10T16:39:04;21.05;;;7.80;;
45077;SDS011;60508;42.622;25.416;2022-12-10T16:41:30;31.85;;;8.43;;
45077;SDS011;60508;42.622;25.416;2022-12-10T16:43:56;20.33;;;7.15;;
45077;SDS011;60508;42.622;25.416;2022-12-10T16:46:22;25.35;;;11.07;;
45077;SDS011;60508;42.622;25.416;2022-12-10T16:48:48;23.30;;;8.57;;
45077;SDS011;60508;42.622;25.416;2022-12-10T16:51:16;27.60;;;9.43;;
45077;SDS011;60508;42.622;25.416;2022-12-10T16:53:47;22.88;;;8.90;;